createdAt,value
2023-03-13T00:00:09.134Z,10.95
2023-03-13T00:02:51.719Z,10.55
2023-03-13T00:05:36.248Z,11.70
2023-03-13T00:08:18.980Z,12.23
2023-03-13T00:11:03.343Z,12.38
2023-03-13T00:13:47.392Z,16.15
2023-03-13T00:16:30.254Z,16.23
2023-03-13T00:19:12.946Z,17.38
2023-03-13T00:21:55.615Z,13.30
2023-03-13T00:24:38.449Z,14.20
2023-03-13T00:27:21.153Z,15.93
2023-03-13T00:30:05.513Z,12.25
2023-03-13T00:32:48.650Z,15.52
2023-03-13T00:35:31.592Z,17.40
2023-03-13T00:38:14.305Z,14.10
2023-03-13T00:41:00.522Z,17.08
2023-03-13T00:43:44.160Z,15.60
2023-03-13T00:46:29.645Z,18.20
2023-03-13T00:49:12.491Z,10.75
2023-03-13T00:51:55.185Z,14.68
2023-03-13T00:54:39.336Z,16.13
2023-03-13T00:57:22.138Z,16.65
2023-03-13T01:00:06.203Z,17.77
2023-03-13T01:02:51.384Z,13.45
2023-03-13T01:05:34.116Z,18.52
2023-03-13T01:08:16.808Z,14.98
2023-03-13T01:10:59.846Z,12.52
2023-03-13T01:13:43.044Z,16.38
2023-03-13T01:16:26.888Z,16.60
2023-03-13T01:19:13.362Z,16.27
2023-03-13T01:21:56.284Z,14.32
2023-03-13T01:24:40.414Z,16.40
2023-03-13T01:27:22.981Z,18.80
2023-03-13T01:30:06.210Z,18.05
2023-03-13T01:32:48.845Z,21.63
2023-03-13T01:35:32.928Z,13.38
2023-03-13T01:38:15.975Z,12.23
2023-03-13T01:40:58.642Z,17.52
2023-03-13T01:43:41.268Z,15.95
2023-03-13T01:46:25.108Z,14.75
2023-03-13T01:49:22.819Z,11.95
2023-03-13T01:52:17.734Z,16.05
2023-03-13T01:55:07.791Z,16.02
2023-03-13T01:57:52.129Z,18.15
2023-03-13T02:00:37.801Z,17.50
2023-03-13T02:03:25.028Z,17.80
2023-03-13T02:06:08.060Z,17.33
2023-03-13T02:08:55.361Z,20.90
2023-03-13T02:11:43.665Z,10.60
2023-03-13T02:14:28.284Z,21.42
2023-03-13T02:17:11.147Z,16.60
2023-03-13T02:19:53.860Z,21.08
2023-03-13T02:22:40.314Z,19.17
2023-03-13T02:25:30.151Z,17.55
2023-03-13T02:28:17.006Z,14.70
2023-03-13T02:30:59.884Z,13.85
2023-03-13T02:33:43.952Z,18.65
2023-03-13T02:36:31.490Z,19.30
2023-03-13T02:39:15.338Z,14.10
2023-03-13T02:42:00.807Z,16.75
2023-03-13T02:44:44.444Z,13.60
2023-03-13T02:47:28.313Z,15.38
2023-03-13T02:50:12.252Z,16.00
2023-03-13T02:52:56.440Z,17.17
2023-03-13T02:55:40.918Z,12.35
2023-03-13T02:58:26.903Z,20.85
2023-03-13T03:01:10.117Z,10.13
2023-03-13T03:03:55.549Z,14.85
2023-03-13T03:06:38.211Z,18.05
2023-03-13T03:09:21.900Z,12.95
2023-03-13T03:12:07.489Z,11.80
2023-03-13T03:14:51.456Z,16.52
2023-03-13T03:17:34.191Z,11.27
2023-03-13T03:20:16.856Z,20.65
2023-03-13T03:22:59.856Z,14.70
2023-03-13T03:25:42.744Z,15.40
2023-03-13T03:28:25.356Z,16.13
2023-03-13T03:31:10.460Z,17.20
2023-03-13T03:33:53.317Z,11.57
2023-03-13T03:36:36.640Z,10.70
2023-03-13T03:39:19.263Z,9.55
2023-03-13T03:42:02.319Z,15.32
2023-03-13T03:44:45.092Z,12.95
2023-03-13T03:47:30.947Z,16.05
2023-03-13T03:50:14.487Z,12.30
2023-03-13T03:53:07.903Z,12.20
2023-03-13T03:55:50.595Z,15.65
2023-03-13T03:58:33.534Z,12.25
2023-03-13T04:01:28.813Z,11.50
2023-03-13T04:04:12.836Z,13.77
2023-03-13T04:06:58.260Z,13.18
2023-03-13T04:09:42.454Z,12.63
2023-03-13T04:12:29.860Z,11.32
2023-03-13T04:15:13.325Z,12.88
2023-03-13T04:17:56.900Z,12.65
2023-03-13T04:20:41.057Z,12.52
2023-03-13T04:23:24.020Z,15.07
2023-03-13T04:26:07.823Z,14.25
2023-03-13T04:28:50.950Z,10.02
2023-03-13T04:31:39.176Z,10.00
2023-03-13T04:34:36.041Z,11.70
2023-03-13T04:37:55.159Z,10.88
2023-03-13T04:40:56.444Z,15.73
2023-03-13T04:43:57.172Z,12.77
2023-03-13T04:47:02.727Z,8.75
2023-03-13T04:50:03.233Z,10.38
2023-03-13T04:53:07.607Z,11.55
2023-03-13T04:56:36.210Z,13.23
2023-03-13T04:59:45.392Z,13.38
2023-03-13T05:03:03.385Z,8.48
2023-03-13T05:06:04.816Z,15.75
2023-03-13T05:09:07.583Z,9.15
2023-03-13T05:12:08.829Z,9.38
2023-03-13T05:15:17.768Z,10.70
2023-03-13T05:18:32.540Z,10.30
2023-03-13T05:21:27.671Z,12.88
2023-03-13T05:24:29.963Z,11.40
2023-03-13T05:27:23.145Z,11.25
2023-03-13T05:30:20.869Z,8.82
2023-03-13T05:33:20.297Z,9.23
2023-03-13T05:36:12.434Z,9.40
2023-03-13T05:39:12.700Z,11.10
2023-03-13T05:42:05.884Z,7.55
2023-03-13T05:45:02.728Z,6.88
2023-03-13T05:48:03.840Z,6.70
2023-03-13T05:50:47.131Z,9.15
2023-03-13T05:54:05.155Z,8.38
2023-03-13T05:57:07.085Z,7.60
2023-03-13T05:59:56.701Z,8.00
2023-03-13T06:03:08.242Z,6.70
2023-03-13T06:05:58.479Z,5.80
2023-03-13T06:08:49.198Z,8.18
2023-03-13T06:11:32.064Z,6.78
2023-03-13T06:14:16.468Z,5.38
2023-03-13T06:17:06.175Z,4.43
2023-03-13T06:19:48.790Z,5.50
2023-03-13T06:22:31.865Z,2.72
2023-03-13T06:25:14.460Z,5.50
2023-03-13T06:27:57.085Z,9.90
2023-03-13T06:30:41.047Z,4.55
2023-03-13T06:33:23.690Z,3.25
2023-03-13T06:36:06.914Z,2.22
2023-03-13T06:38:49.630Z,2.83
2023-03-13T06:41:33.030Z,5.70
2023-03-13T06:44:15.665Z,3.85
2023-03-13T06:46:59.668Z,3.92
2023-03-13T06:49:42.279Z,2.25
2023-03-13T06:52:37.471Z,2.78
2023-03-13T06:55:24.278Z,2.42
2023-03-13T06:58:06.867Z,1.42
2023-03-13T07:00:49.497Z,1.60
2023-03-13T07:03:33.564Z,1.67
2023-03-13T07:06:16.572Z,2.13
2023-03-13T07:08:59.219Z,2.17
2023-03-13T07:11:41.841Z,1.35
2023-03-13T07:14:24.537Z,2.35
2023-03-13T07:17:07.177Z,1.38
2023-03-13T07:19:51.409Z,1.25
2023-03-13T07:22:34.046Z,1.13
2023-03-13T07:25:16.664Z,0.95
2023-03-13T07:28:01.032Z,1.25
2023-03-13T07:30:43.645Z,2.33
2023-03-13T07:33:26.361Z,1.35
2023-03-13T07:36:11.180Z,1.58
2023-03-13T07:38:54.013Z,1.70
2023-03-13T07:41:38.359Z,1.77
2023-03-13T07:44:21.990Z,2.15
2023-03-13T07:47:04.613Z,0.90
2023-03-13T07:49:47.239Z,2.70
2023-03-13T07:52:31.559Z,1.35
2023-03-13T07:55:14.244Z,0.60
2023-03-13T07:57:56.859Z,1.38
2023-03-13T08:00:39.770Z,2.05
2023-03-13T08:03:23.160Z,2.00
2023-03-13T08:06:06.990Z,1.65
2023-03-13T08:08:51.256Z,1.13
2023-03-13T08:11:34.104Z,1.25
2023-03-13T08:14:16.767Z,2.45
2023-03-13T08:16:59.498Z,2.08
2023-03-13T08:19:42.130Z,1.77
2023-03-13T08:22:24.748Z,1.42
2023-03-13T08:25:08.944Z,1.42
2023-03-13T08:27:51.534Z,1.13
2023-03-13T08:30:34.254Z,1.10
2023-03-13T08:33:16.926Z,1.95
2023-03-13T08:35:59.590Z,2.25
2023-03-13T08:38:45.886Z,1.23
2023-03-13T08:41:32.172Z,3.63
2023-03-13T08:44:15.828Z,1.05
2023-03-13T08:46:59.954Z,1.27
2023-03-13T08:49:44.013Z,1.02
2023-03-13T08:52:27.541Z,1.10
2023-03-13T08:55:10.529Z,1.80
2023-03-13T08:57:54.587Z,1.52
2023-03-13T09:00:37.408Z,2.83
2023-03-13T09:03:20.072Z,1.20
2023-03-13T09:06:03.350Z,1.42
2023-03-13T09:08:46.252Z,1.20
2023-03-13T09:11:28.919Z,1.52
2023-03-13T09:14:13.008Z,1.60
2023-03-13T09:16:59.404Z,1.92
2023-03-13T09:19:54.283Z,1.80
2023-03-13T09:22:42.267Z,1.38
2023-03-13T09:25:24.881Z,3.72
2023-03-13T09:28:07.472Z,1.85
2023-03-13T09:30:51.556Z,3.90
2023-03-13T09:33:34.209Z,1.77
2023-03-13T09:36:19.286Z,2.45
2023-03-13T09:39:04.064Z,2.75
2023-03-13T09:41:51.276Z,4.15
2023-03-13T09:44:37.026Z,2.17
2023-03-13T09:47:24.137Z,3.60
2023-03-13T09:50:12.109Z,2.83
2023-03-13T09:52:56.552Z,2.55
2023-03-13T09:55:39.399Z,2.78
2023-03-13T09:58:22.892Z,3.17
2023-03-13T10:01:06.565Z,2.30
2023-03-13T10:03:56.647Z,2.45
2023-03-13T10:06:41.363Z,3.22
2023-03-13T10:09:27.424Z,4.57
2023-03-13T10:12:15.820Z,5.35
2023-03-13T10:15:04.245Z,4.00
2023-03-13T10:17:46.933Z,2.30
2023-03-13T10:20:34.533Z,2.17
2023-03-13T10:23:19.481Z,4.97
2023-03-13T10:26:02.168Z,2.72
2023-03-13T10:28:44.913Z,2.95
2023-03-13T10:31:32.590Z,2.88
2023-03-13T10:34:15.475Z,3.95
2023-03-13T10:37:00.537Z,3.22
2023-03-13T10:39:43.204Z,3.65
2023-03-13T10:42:28.535Z,3.22
2023-03-13T10:45:15.348Z,1.90
2023-03-13T10:48:01.128Z,3.05
2023-03-13T10:50:44.986Z,3.25
2023-03-13T10:53:34.984Z,2.85
2023-03-13T10:56:20.523Z,5.07
2023-03-13T10:59:03.208Z,2.47
2023-03-13T11:01:45.866Z,2.45
2023-03-13T11:04:32.753Z,2.97
2023-03-13T11:07:16.898Z,3.65
2023-03-13T11:10:02.279Z,3.47
2023-03-13T11:12:45.830Z,2.85
2023-03-13T11:15:30.662Z,3.78
2023-03-13T11:18:15.658Z,2.58
2023-03-13T11:21:08.732Z,3.72
2023-03-13T11:24:02.445Z,2.80
2023-03-13T11:27:01.935Z,3.25
2023-03-13T11:29:50.913Z,2.55
2023-03-13T11:32:39.117Z,5.38
2023-03-13T11:35:27.351Z,6.05
2023-03-13T11:38:14.233Z,2.88
2023-03-13T11:41:03.879Z,2.25
2023-03-13T11:44:01.354Z,3.22
2023-03-13T11:46:52.684Z,2.22
2023-03-13T11:49:59.548Z,2.42
2023-03-13T11:52:46.521Z,1.70
2023-03-13T11:55:36.941Z,1.63
2023-03-13T11:58:40.278Z,2.22
2023-03-13T12:01:25.846Z,3.47
2023-03-13T12:04:15.432Z,2.15
2023-03-13T12:07:04.274Z,1.52
2023-03-13T12:09:51.036Z,1.17
2023-03-13T12:12:41.468Z,3.00
2023-03-13T12:15:25.844Z,2.25
2023-03-13T12:18:13.547Z,2.58
2023-03-13T12:20:59.357Z,4.18
2023-03-13T12:23:44.931Z,1.65
2023-03-13T12:26:32.984Z,1.73
2023-03-13T12:29:17.545Z,4.10
2023-03-13T12:32:04.087Z,3.70
2023-03-13T12:34:52.981Z,1.70
2023-03-13T12:37:40.058Z,2.33
2023-03-13T12:40:25.431Z,2.47
2023-03-13T12:43:11.656Z,2.40
2023-03-13T12:46:05.192Z,2.50
2023-03-13T12:48:56.010Z,1.48
2023-03-13T12:51:45.163Z,3.33
2023-03-13T12:54:36.598Z,1.75
2023-03-13T12:57:26.819Z,1.27
2023-03-13T13:00:14.312Z,2.60
2023-03-13T13:03:07.362Z,2.08
2023-03-13T13:06:00.886Z,2.35
2023-03-13T13:08:45.499Z,2.30
2023-03-13T13:11:47.903Z,6.95
2023-03-13T13:14:54.415Z,3.42
2023-03-13T13:17:55.012Z,5.18
2023-03-13T13:20:39.555Z,2.45
2023-03-13T13:23:24.092Z,3.03
2023-03-13T13:26:26.475Z,2.97
2023-03-13T13:29:27.629Z,1.45
2023-03-13T13:32:16.344Z,2.65
2023-03-13T13:35:02.387Z,3.22
2023-03-13T13:37:46.164Z,2.08
2023-03-13T13:40:30.336Z,4.13
2023-03-13T13:43:20.667Z,4.00
2023-03-13T13:46:06.092Z,2.22
2023-03-13T13:49:07.678Z,2.60
2023-03-13T13:52:14.371Z,5.63
2023-03-13T13:54:58.008Z,2.33
2023-03-13T13:57:40.728Z,4.82
2023-03-13T14:00:27.046Z,2.10
2023-03-13T14:03:17.827Z,2.83
2023-03-13T14:06:04.334Z,2.42
2023-03-13T14:08:49.737Z,2.20
2023-03-13T14:11:35.224Z,5.38
2023-03-13T14:14:18.793Z,4.28
2023-03-13T14:17:01.701Z,1.98
2023-03-13T14:19:44.558Z,2.13
2023-03-13T14:22:45.198Z,2.70
2023-03-13T14:25:28.376Z,1.35
2023-03-13T14:28:18.911Z,2.10
2023-03-13T14:31:01.538Z,2.47
2023-03-13T14:33:44.207Z,3.00
2023-03-13T14:36:27.421Z,3.05
2023-03-13T14:39:17.933Z,5.10
2023-03-13T14:42:03.685Z,2.40
2023-03-13T14:44:48.673Z,1.90
2023-03-13T14:47:31.521Z,3.80
2023-03-13T14:50:15.810Z,2.17
2023-03-13T14:53:01.014Z,2.55
2023-03-13T14:55:44.962Z,3.33
2023-03-13T14:58:29.015Z,2.65
2023-03-13T15:01:16.567Z,3.40
2023-03-13T15:03:59.304Z,1.23
2023-03-13T15:06:41.985Z,3.38
2023-03-13T15:09:32.633Z,2.97
2023-03-13T15:12:18.025Z,1.55
2023-03-13T15:15:00.834Z,2.40
2023-03-13T15:17:43.582Z,4.20
2023-03-13T15:20:26.264Z,4.93
2023-03-13T15:23:11.939Z,3.33
2023-03-13T15:25:54.592Z,1.73
2023-03-13T15:28:38.598Z,2.67
2023-03-13T15:31:23.977Z,1.27
2023-03-13T15:34:07.678Z,1.77
2023-03-13T15:36:50.344Z,3.55
2023-03-13T15:39:34.574Z,3.75
2023-03-13T15:42:17.267Z,2.17
2023-03-13T15:45:01.299Z,1.90
2023-03-13T15:47:43.964Z,2.42
2023-03-13T15:50:30.759Z,2.88
2023-03-13T15:53:18.453Z,1.92
2023-03-13T15:56:01.862Z,2.35
2023-03-13T15:58:44.834Z,2.42
2023-03-13T16:01:29.087Z,1.75
2023-03-13T16:04:11.910Z,2.97
2023-03-13T16:06:54.629Z,2.58
2023-03-13T16:09:37.355Z,2.65
2023-03-13T16:12:20.060Z,3.20
2023-03-13T16:15:04.670Z,2.20
2023-03-13T16:17:48.847Z,1.63
2023-03-13T16:20:32.138Z,1.25
2023-03-13T16:23:14.798Z,1.85
2023-03-13T16:25:57.430Z,2.05
2023-03-13T16:28:40.089Z,1.40
2023-03-13T16:31:23.699Z,3.88
2023-03-13T16:34:08.089Z,0.80
2023-03-13T16:36:50.814Z,2.38
2023-03-13T16:39:33.526Z,1.60
2023-03-13T16:42:16.343Z,1.77
2023-03-13T16:44:59.029Z,2.20
2023-03-13T16:47:42.067Z,1.25
2023-03-13T16:50:27.945Z,2.92
2023-03-13T16:53:10.644Z,1.15
2023-03-13T16:55:53.406Z,1.95
2023-03-13T16:58:36.095Z,1.70
2023-03-13T17:01:18.946Z,2.50
2023-03-13T17:04:01.879Z,1.80
2023-03-13T17:06:46.788Z,2.17
2023-03-13T17:09:29.477Z,1.85
2023-03-13T17:12:12.127Z,2.15
2023-03-13T17:14:54.773Z,1.33
2023-03-13T17:17:37.541Z,1.52
2023-03-13T17:20:21.555Z,2.42
2023-03-13T17:23:05.603Z,3.70
2023-03-13T17:25:48.255Z,4.47
2023-03-13T17:28:30.888Z,2.45
2023-03-13T17:31:13.823Z,1.45
2023-03-13T17:33:56.590Z,2.72
2023-03-13T17:36:39.708Z,1.95
2023-03-13T17:39:24.812Z,2.28
2023-03-13T17:42:07.487Z,2.15
2023-03-13T17:44:50.142Z,2.90
2023-03-13T17:47:32.802Z,1.92
2023-03-13T17:50:20.510Z,3.58
2023-03-13T17:53:03.194Z,2.40
2023-03-13T17:55:47.398Z,1.35
2023-03-13T17:58:30.044Z,1.65
2023-03-13T18:01:13.910Z,0.95
2023-03-13T18:03:56.580Z,3.22
2023-03-13T18:06:40.205Z,2.03
2023-03-13T18:09:23.028Z,1.30
2023-03-13T18:12:07.449Z,2.05
2023-03-13T18:14:50.067Z,4.43
2023-03-13T18:17:34.138Z,1.58
2023-03-13T18:20:18.152Z,3.05
2023-03-13T18:23:01.007Z,2.80
2023-03-13T18:25:43.783Z,1.75
2023-03-13T18:28:27.882Z,1.70
2023-03-13T18:31:10.755Z,2.55
2023-03-13T18:33:53.386Z,3.05
2023-03-13T18:36:36.008Z,1.52
2023-03-13T18:39:18.872Z,9.32
2023-03-13T18:42:01.975Z,4.07
2023-03-13T18:44:46.045Z,7.65
2023-03-13T18:47:28.699Z,3.17
2023-03-13T18:50:18.681Z,2.78
2023-03-13T18:53:01.778Z,5.18
2023-03-13T18:55:44.517Z,5.75
2023-03-13T18:58:27.169Z,3.20
2023-03-13T19:01:13.056Z,4.45
2023-03-13T19:03:56.110Z,3.75
2023-03-13T19:06:38.748Z,2.47
2023-03-13T19:12:24.704Z,3.28
2023-03-13T19:15:08.289Z,3.47
2023-03-13T19:17:52.887Z,3.72
2023-03-13T19:20:35.561Z,3.08
2023-03-13T19:23:18.254Z,4.38
2023-03-13T19:26:00.976Z,2.00
2023-03-13T19:28:43.594Z,4.63
2023-03-13T19:31:26.468Z,2.75
2023-03-13T19:34:11.008Z,5.75
2023-03-13T19:36:53.664Z,4.10
2023-03-13T19:39:36.509Z,6.60
2023-03-13T19:42:19.135Z,6.97
2023-03-13T19:45:01.811Z,4.47
2023-03-13T19:47:44.634Z,6.65
2023-03-13T19:50:29.779Z,5.28
2023-03-13T19:53:12.399Z,8.07
2023-03-13T19:55:55.020Z,5.72
2023-03-13T19:58:37.760Z,7.00
2023-03-13T20:01:20.645Z,10.68
2023-03-13T20:04:03.264Z,9.38
2023-03-13T20:06:47.237Z,5.85
2023-03-13T20:09:29.913Z,10.43
2023-03-13T20:12:12.522Z,6.55
2023-03-13T20:14:55.206Z,10.30
2023-03-13T20:17:37.889Z,5.72
2023-03-13T20:20:20.677Z,8.45
2023-03-13T20:23:04.700Z,8.13
2023-03-13T20:25:47.335Z,6.75
2023-03-13T20:28:30.211Z,7.68
2023-03-13T20:31:13.596Z,7.20
2023-03-13T20:33:56.550Z,5.72
2023-03-13T20:36:39.231Z,8.00
2023-03-13T20:39:23.879Z,7.63
2023-03-13T20:42:08.135Z,7.45
2023-03-13T20:44:50.763Z,10.43
2023-03-13T20:47:33.414Z,9.32
2023-03-13T20:50:18.554Z,9.35
2023-03-13T20:53:02.155Z,6.72
2023-03-13T20:55:46.559Z,9.20
2023-03-13T20:58:29.207Z,7.50
2023-03-13T21:01:11.894Z,5.80
2023-03-13T21:03:54.533Z,7.53
2023-03-13T21:06:37.180Z,5.30
2023-03-13T21:09:19.822Z,7.53
2023-03-13T21:12:03.832Z,5.93
2023-03-13T21:14:46.488Z,8.35
2023-03-13T21:17:29.137Z,6.85
2023-03-13T21:20:12.560Z,6.25
2023-03-13T21:22:55.230Z,6.15
2023-03-13T21:25:37.930Z,5.75
2023-03-13T21:28:21.986Z,7.55
2023-03-13T21:31:08.818Z,5.43
2023-03-13T21:33:51.483Z,6.75
2023-03-13T21:36:34.167Z,7.00
2023-03-13T21:39:16.847Z,6.32
2023-03-13T21:41:59.913Z,6.22
2023-03-13T21:44:44.614Z,6.97
2023-03-13T21:47:27.309Z,7.82
2023-03-13T21:50:11.064Z,8.05
2023-03-13T21:52:53.705Z,5.60
2023-03-13T21:55:38.259Z,6.80
2023-03-13T21:58:20.899Z,6.65
2023-03-13T22:01:05.018Z,6.63
2023-03-13T22:10:12.353Z,8.57
2023-03-13T22:12:56.483Z,7.00
2023-03-13T22:15:39.110Z,9.13
2023-03-13T22:18:21.776Z,3.92
2023-03-13T22:21:04.910Z,4.07
2023-03-13T22:23:47.575Z,5.75
2023-03-13T22:26:30.195Z,5.28
2023-03-13T22:29:14.170Z,5.13
2023-03-13T22:31:56.846Z,4.03
2023-03-13T22:34:44.650Z,6.30
2023-03-13T22:37:27.648Z,5.60
2023-03-13T22:40:11.167Z,6.10
2023-03-13T22:42:53.831Z,5.40
2023-03-13T22:45:37.812Z,3.88
2023-03-13T22:48:20.415Z,2.90
2023-03-13T22:51:03.668Z,4.60
2023-03-13T22:53:46.292Z,2.70
2023-03-13T22:56:28.898Z,2.45
2023-03-13T22:59:11.482Z,3.45
2023-03-13T23:01:55.533Z,2.75
2023-03-13T23:04:38.112Z,6.03
2023-03-13T23:07:22.490Z,1.98
2023-03-13T23:10:05.657Z,3.20
2023-03-13T23:12:48.267Z,6.40
2023-03-13T23:15:43.002Z,4.22
2023-03-13T23:18:31.724Z,2.95
2023-03-13T23:21:15.143Z,4.57
2023-03-13T23:23:57.742Z,4.05
2023-03-13T23:26:40.653Z,3.67
2023-03-13T23:29:23.226Z,3.33
2023-03-13T23:32:05.978Z,2.55
2023-03-13T23:34:49.931Z,5.65
2023-03-13T23:37:33.258Z,6.80
2023-03-13T23:40:16.438Z,3.85
2023-03-13T23:42:59.109Z,4.75
2023-03-13T23:45:41.764Z,4.53
2023-03-13T23:48:24.382Z,5.38
2023-03-13T23:51:08.782Z,5.65
2023-03-13T23:53:51.425Z,4.78
2023-03-13T23:56:34.150Z,3.17
2023-03-13T23:59:16.770Z,2.85
